Aérodrome :
LOGIN :

S'inscrire | Disclaimer

   EN    FR    IT 

 










Légende :    VFR   VFR Marginal   IFR   IFR Intensif   IFR Très Intensif
Visi : 
Plafond : 
>= 8 km
>= 3000ft
5 à 8 km
1000 à 3000 ft
1500m à 5 km
500 à 1000 ft
800 à 1500m
200 à 500 ft
< 800m
< 200 ft
Symboles :   Orages  Brouillard  Fortes neiges  Fortes précipitations  Vent > 20 kt
SIGMETs :   Divers  Orages  Givrage  Turbulence  Onde Orograph.  Cendres Volcan.






- Altitude de l'aérodrome : 90 ft
- Code IATA : NTE


LFRS - Nantes

DERNIER METAR :
  • 300900Z AUTO VRB02KT CAVOK 13/10 Q1014 NOSIG

METARs EXPIRÉS :
  • 300830Z AUTO VRB02KT CAVOK 11/10 Q1014 NOSIG
  • 300800Z AUTO VRB01KT CAVOK 10/10 Q1013 TEMPO 3000 BR

TAF TAF LFRS
Valide du 30 à 06h jusqu'au 01 à 12h UTC


300500Z 3006/0112 VRB02KT CAVOK
TEMPO 3006/3009 3000 BR
PROB40
TEMPO 3006/3008 0400 FG VV///
BECMG 3012/3014 25010KT
BECMG 3017/3019 RA
BECMG 3021/3023 BKN014
PROB40
TEMPO 3023/0103 24016G29KT
TEMPO 0101/0112 4500 RA BKN005
ATIS : +33 2 40 05 12 74



MET'MAP, la Météo Aéronautique d'un coup d'oeil ! - Copyright ORBIFLY Décembre 2007 - Disclaimer

ORBIFLY MET'MAP TEAM :

Programmation & Développement : Alexandra Zaïnal
Sur une idée originale de : Baudouin d'Aumeries
Soutien technique & logistique : Manuel Goepfert
Assistance : Marc-Olivier Méhu




SOURCES & CREDITS :

   NOAA